Time;durP1;ratioP1;P1;durP2;ratioP2;P2;SDS_P1;SDS_P2;PMS_P1;PMS_P2;Temp;Humidity;BMP_temperature;BMP_pressure;BME280_temperature;BME280_humidity;BME280_pressure;Samples;Min_cycle;Max_cycle;Signal;HPM_P1;HPM_P2
2022/10/17 00:01:42;;;;;;;9.32;3.40;;;13.00;99.90;;;;;;4968259;28;20530;-76
2022/10/17 00:04:07;;;;;;;14.68;3.35;;;13.00;99.90;;;;;;4960668;28;20055;-75
2022/10/17 00:06:33;;;;;;;11.50;3.05;;;12.80;99.90;;;;;;4953146;28;20138;-75
2022/10/17 00:08:59;;;;;;;13.05;2.55;;;13.00;99.90;;;;;;4965230;28;20043;-73
2022/10/17 00:11:24;;;;;;;13.75;3.05;;;13.00;99.90;;;;;;4964146;28;20043;-75
2022/10/17 00:13:54;;;;;;;12.02;2.58;;;13.00;99.90;;;;;;4976022;28;20042;-74
2022/10/17 00:16:46;;;;;;;8.95;3.17;;;12.70;99.90;;;;;;4969841;28;20047;-75
2022/10/17 00:19:11;;;;;;;9.32;3.28;;;12.90;99.90;;;;;;4965459;28;20082;-77
2022/10/17 00:21:37;;;;;;;10.98;3.70;;;12.70;99.90;;;;;;4957340;28;20071;-75
2022/10/17 00:24:03;;;;;;;12.80;3.53;;;12.90;99.90;;;;;;4958141;28;20463;-75
2022/10/17 00:26:28;;;;;;;11.98;3.35;;;12.70;99.90;;;;;;4972593;28;20042;-74
2022/10/17 00:28:54;;;;;;;10.70;2.90;;;12.80;99.90;;;;;;4970840;28;20115;-75
2022/10/17 00:31:21;;;;;;;7.68;2.80;;;12.90;99.90;;;;;;4960480;28;20122;-75
2022/10/17 00:33:47;;;;;;;9.85;2.72;;;12.80;99.90;;;;;;4962692;28;20062;-75
2022/10/17 00:36:16;;;;;;;9.15;2.55;;;13.00;99.90;;;;;;4965535;28;20170;-75
2022/10/17 00:38:43;;;;;;;9.13;2.95;;;13.00;99.90;;;;;;4959518;28;20517;-76
2022/10/17 00:41:12;;;;;;;9.88;2.55;;;12.90;99.90;;;;;;4962130;28;20380;-75
2022/10/17 00:44:19;;;;;;;8.50;3.30;;;12.90;99.90;;;;;;4964240;28;20050;-75
2022/10/17 00:46:44;;;;;;;10.20;3.20;;;13.00;99.90;;;;;;4942536;28;20102;-75
2022/10/17 00:49:11;;;;;;;4.82;2.25;;;12.90;99.90;;;;;;4960928;28;20086;-74
2022/10/17 00:51:48;;;;;;;12.82;3.45;;;12.80;99.90;;;;;;4962227;28;20059;-74
2022/10/17 00:54:16;;;;;;;9.60;4.00;;;12.80;99.90;;;;;;4963916;28;20046;-75
2022/10/17 00:56:43;;;;;;;10.55;2.88;;;12.70;99.90;;;;;;4956121;28;20076;-76
2022/10/17 00:59:12;;;;;;;9.05;3.22;;;12.90;99.90;;;;;;4961909;28;20497;-75
2022/10/17 01:01:40;;;;;;;8.82;3.17;;;12.70;99.90;;;;;;4958349;28;20042;-75
2022/10/17 01:04:05;;;;;;;6.82;2.70;;;12.80;99.90;;;;;;4965834;28;20192;-75
2022/10/17 01:06:31;;;;;;;16.55;4.35;;;13.00;99.90;;;;;;4970519;28;20158;-74
2022/10/17 01:08:57;;;;;;;11.95;2.80;;;12.70;99.90;;;;;;4962695;28;20514;-75
2022/10/17 01:11:38;;;;;;;8.77;3.88;;;12.80;99.90;;;;;;4960859;28;20118;-75
2022/10/17 01:14:30;;;;;;;15.07;3.95;;;13.00;99.90;;;;;;4958000;28;20054;-75
2022/10/17 01:17:33;;;;;;;9.90;3.50;;;12.90;99.90;;;;;;4945448;28;20534;-75
2022/10/17 01:20:36;;;;;;;9.85;3.17;;;13.00;99.90;;;;;;4949910;28;20086;-75
2022/10/17 01:23:53;;;;;;;17.95;5.03;;;12.80;99.90;;;;;;4957710;28;20575;-75
2022/10/17 01:26:32;;;;;;;9.15;3.25;;;13.20;99.90;;;;;;4965492;28;20095;-75
2022/10/17 01:29:36;;;;;;;7.65;3.67;;;12.90;99.90;;;;;;4965413;28;20122;-75
2022/10/17 01:32:12;;;;;;;9.43;2.85;;;13.00;99.90;;;;;;4958574;28;20113;-75
2022/10/17 01:34:43;;;;;;;12.25;3.85;;;13.10;99.90;;;;;;4957952;28;20086;-75
2022/10/17 01:37:53;;;;;;;7.10;4.25;;;13.20;99.90;;;;;;4958199;28;20126;-75
2022/10/17 01:40:24;;;;;;;3.50;2.67;;;13.30;99.90;;;;;;4964891;28;20125;-75
2022/10/17 01:42:49;;;;;;;10.38;3.58;;;13.30;99.90;;;;;;4970657;28;20401;-75
2022/10/17 01:45:19;;;;;;;5.97;2.70;;;13.00;99.90;;;;;;4954884;28;20055;-75
2022/10/17 01:47:49;;;;;;;9.18;3.90;;;13.00;99.90;;;;;;4962124;28;20054;-75
2022/10/17 01:50:21;;;;;;;9.68;4.80;;;13.00;99.90;;;;;;4953999;28;20565;-75
2022/10/17 01:52:55;;;;;;;8.27;4.68;;;13.20;99.90;;;;;;4958029;28;20043;-75
2022/10/17 01:55:26;;;;;;;8.45;3.50;;;13.20;99.90;;;;;;4964076;28;20594;-75
2022/10/17 01:57:58;;;;;;;5.18;2.83;;;13.10;99.90;;;;;;4968559;28;20035;-75
2022/10/17 02:00:25;;;;;;;9.95;3.20;;;13.20;99.90;;;;;;4965609;28;20149;-75
2022/10/17 02:02:59;;;;;;;8.48;3.67;;;13.00;99.90;;;;;;4968625;28;20046;-74
2022/10/17 02:05:30;;;;;;;11.93;5.43;;;13.00;99.90;;;;;;4965898;28;20065;-76
2022/10/17 02:07:56;;;;;;;5.43;3.58;;;12.80;99.90;;;;;;4957793;28;20098;-74
2022/10/17 02:10:34;;;;;;;6.00;3.22;;;13.00;99.90;;;;;;4958076;28;20542;-75
2022/10/17 02:13:20;;;;;;;7.10;3.97;;;13.10;99.90;;;;;;4969523;28;20043;-76
2022/10/17 02:15:58;;;;;;;8.98;4.82;;;12.80;99.90;;;;;;4961978;28;20093;-75
2022/10/17 02:18:36;;;;;;;6.95;4.22;;;13.20;99.90;;;;;;4959840;28;20070;-75
2022/10/17 02:21:08;;;;;;;8.45;3.83;;;13.00;99.90;;;;;;4955135;28;20046;-75
2022/10/17 02:23:44;;;;;;;8.10;3.53;;;13.00;99.90;;;;;;4950816;28;20054;-75
2022/10/17 02:26:31;;;;;;;5.85;3.30;;;13.00;99.90;;;;;;4952803;28;20101;-75
2022/10/17 02:29:09;;;;;;;8.02;3.40;;;12.80;99.90;;;;;;4968945;28;20055;-76
2022/10/17 02:32:05;;;;;;;11.63;4.80;;;13.20;99.90;;;;;;4965816;28;20129;-75
2022/10/17 02:34:39;;;;;;;11.70;5.55;;;12.90;99.90;;;;;;4969867;28;20055;-75
2022/10/17 02:37:07;;;;;;;8.25;4.30;;;13.20;99.90;;;;;;4964193;28;20052;-74
2022/10/17 02:39:34;;;;;;;8.45;4.38;;;13.20;99.90;;;;;;4968912;28;20058;-76
2022/10/17 02:42:04;;;;;;;7.43;4.32;;;12.90;99.90;;;;;;4973174;28;20411;-76
2022/10/17 02:44:32;;;;;;;9.68;4.25;;;12.80;99.90;;;;;;4961292;28;20039;-75
2022/10/17 02:47:21;;;;;;;6.28;4.72;;;12.80;99.90;;;;;;4967435;28;20043;-76
2022/10/17 02:49:50;;;;;;;9.85;4.68;;;13.10;99.90;;;;;;4961482;28;20121;-76
2022/10/17 02:52:43;;;;;;;11.88;6.03;;;12.80;99.90;;;;;;4972410;28;20561;-75
2022/10/17 02:55:17;;;;;;;8.95;5.43;;;13.00;99.90;;;;;;4955663;28;20455;-76
2022/10/17 02:57:55;;;;;;;10.75;5.53;;;12.90;99.90;;;;;;4964972;28;20047;-74
2022/10/17 03:00:23;;;;;;;7.15;5.18;;;13.20;99.90;;;;;;4964915;28;20043;-73
2022/10/17 03:02:51;;;;;;;9.02;5.97;;;13.00;99.90;;;;;;4962815;28;20051;-76
2022/10/17 03:05:28;;;;;;;11.10;5.50;;;13.20;99.90;;;;;;4971945;28;20047;-75
2022/10/17 03:07:55;;;;;;;13.88;5.80;;;13.10;99.90;;;;;;4969381;28;20137;-73
2022/10/17 03:10:21;;;;;;;11.18;6.13;;;13.20;99.90;;;;;;4962496;28;20447;-75
2022/10/17 03:12:47;;;;;;;12.65;7.00;;;12.70;99.90;;;;;;4968906;28;20170;-73
2022/10/17 03:15:13;;;;;;;8.15;5.75;;;13.10;99.90;;;;;;4962587;28;20049;-74
2022/10/17 03:17:39;;;;;;;9.18;6.13;;;12.70;99.90;;;;;;4957107;28;20413;-73
2022/10/17 03:20:06;;;;;;;9.38;6.18;;;12.80;99.90;;;;;;4962409;28;20046;-74
2022/10/17 03:22:31;;;;;;;21.05;8.13;;;13.00;99.90;;;;;;4968280;28;20045;-75
2022/10/17 03:24:57;;;;;;;12.48;7.47;;;12.80;99.90;;;;;;4972276;28;20134;-74
2022/10/17 03:27:23;;;;;;;10.07;7.03;;;13.20;99.90;;;;;;4966187;28;20117;-74
2022/10/17 03:29:49;;;;;;;11.02;9.13;;;13.10;99.90;;;;;;4953312;28;20110;-74
2022/10/17 03:32:15;;;;;;;12.05;8.52;;;13.10;99.90;;;;;;4966236;28;20034;-74
2022/10/17 03:34:40;;;;;;;9.50;8.10;;;13.10;99.90;;;;;;4971441;28;20089;-75
2022/10/17 03:37:06;;;;;;;9.63;7.35;;;12.80;99.90;;;;;;4967632;28;20043;-73
2022/10/17 03:39:31;;;;;;;11.43;8.13;;;13.20;99.90;;;;;;4969243;28;20277;-76
2022/10/17 03:41:57;;;;;;;11.43;8.48;;;12.80;99.90;;;;;;4972800;28;20497;-75
2022/10/17 03:44:22;;;;;;;11.48;9.40;;;13.10;99.90;;;;;;4967173;28;20099;-73
2022/10/17 03:46:48;;;;;;;12.05;9.02;;;12.80;99.90;;;;;;4962083;28;20381;-75
2022/10/17 03:49:14;;;;;;;15.52;10.25;;;13.20;99.90;;;;;;4959857;28;20043;-75
2022/10/17 03:51:39;;;;;;;14.48;10.18;;;13.20;99.90;;;;;;4961336;28;20098;-75
2022/10/17 03:54:05;;;;;;;11.35;9.75;;;13.30;99.90;;;;;;4964907;28;20490;-75
2022/10/17 03:56:30;;;;;;;13.70;10.82;;;12.90;99.90;;;;;;4960513;28;20494;-77
2022/10/17 03:58:56;;;;;;;12.95;10.45;;;13.30;99.90;;;;;;4967733;28;20074;-74
2022/10/17 04:01:22;;;;;;;12.95;10.82;;;13.10;99.90;;;;;;4962435;28;20490;-75
2022/10/17 04:03:50;;;;;;;15.43;10.63;;;13.40;99.90;;;;;;4962826;28;20458;-75
2022/10/17 04:06:16;;;;;;;15.98;12.05;;;13.00;99.90;;;;;;4962286;28;20056;-76
2022/10/17 04:08:42;;;;;;;17.23;12.30;;;13.00;99.90;;;;;;4963145;28;20097;-75
2022/10/17 04:11:09;;;;;;;12.48;10.27;;;13.40;99.90;;;;;;4969986;28;20525;-75
2022/10/17 04:13:35;;;;;;;20.90;12.00;;;13.50;99.90;;;;;;4965605;28;20397;-75
2022/10/17 04:16:06;;;;;;;13.38;11.52;;;13.20;99.90;;;;;;4967616;28;20038;-73
2022/10/17 04:18:33;;;;;;;19.38;12.13;;;13.10;99.90;;;;;;4961836;28;20046;-76
2022/10/17 04:21:01;;;;;;;14.23;12.73;;;13.70;99.90;;;;;;4969694;28;20039;-77
2022/10/17 04:23:27;;;;;;;17.83;13.98;;;13.20;99.90;;;;;;4965836;28;20484;-75
2022/10/17 04:25:57;;;;;;;15.50;12.43;;;13.70;99.90;;;;;;4955506;28;20127;-75
2022/10/17 04:28:23;;;;;;;21.57;14.57;;;13.20;99.90;;;;;;4959660;28;20038;-76
2022/10/17 04:30:58;;;;;;;20.50;13.82;;;13.80;99.90;;;;;;4953020;28;20130;-75
2022/10/17 04:33:24;;;;;;;19.67;13.60;;;13.90;99.90;;;;;;4958161;28;20038;-76
2022/10/17 04:35:57;;;;;;;15.10;13.55;;;13.80;99.90;;;;;;4971528;28;20046;-76
2022/10/17 04:38:23;;;;;;;18.48;12.68;;;13.80;99.90;;;;;;4965258;28;20031;-76
2022/10/17 04:40:49;;;;;;;16.40;12.73;;;13.40;99.90;;;;;;4952296;28;20043;-76
2022/10/17 04:43:14;;;;;;;17.83;13.98;;;13.80;99.90;;;;;;4955118;28;20089;-77
2022/10/17 04:45:40;;;;;;;19.88;14.60;;;14.00;99.90;;;;;;4958884;28;20490;-77
2022/10/17 04:48:06;;;;;;;16.98;13.52;;;13.60;99.90;;;;;;4965067;28;20051;-76
2022/10/17 04:50:31;;;;;;;16.77;13.30;;;14.10;99.90;;;;;;4967403;28;20051;-76
2022/10/17 04:52:57;;;;;;;16.42;13.15;;;14.00;99.90;;;;;;4951985;28;20058;-76
2022/10/17 04:55:22;;;;;;;21.27;14.90;;;13.50;99.90;;;;;;4960578;28;20819;-76
2022/10/17 04:57:48;;;;;;;17.63;13.35;;;14.10;99.90;;;;;;4961793;28;20418;-76
2022/10/17 05:00:14;;;;;;;18.95;13.93;;;14.10;99.90;;;;;;4967828;28;20160;-77
2022/10/17 05:02:39;;;;;;;20.02;14.68;;;13.70;99.90;;;;;;4963922;28;20061;-77
2022/10/17 05:05:05;;;;;;;20.40;14.20;;;14.40;99.90;;;;;;4963866;28;20061;-76
2022/10/17 05:07:31;;;;;;;19.10;14.75;;;13.80;99.90;;;;;;4966575;28;20464;-76
2022/10/17 05:09:57;;;;;;;18.55;15.23;;;14.40;99.90;;;;;;4967199;28;20729;-75
2022/10/17 05:12:23;;;;;;;21.35;15.63;;;13.90;99.90;;;;;;4970795;28;20121;-75
2022/10/17 05:14:49;;;;;;;17.00;15.23;;;13.90;99.90;;;;;;4965215;28;20039;-76
2022/10/17 05:17:14;;;;;;;18.10;14.55;;;14.60;99.90;;;;;;4967132;28;20098;-75
2022/10/17 05:19:40;;;;;;;15.25;13.20;;;14.00;99.90;;;;;;4964389;28;20070;-75
2022/10/17 05:22:06;;;;;;;16.38;14.40;;;14.40;99.90;;;;;;4964995;28;20462;-76
2022/10/17 05:24:31;;;;;;;16.50;14.63;;;14.10;99.90;;;;;;4961883;28;20051;-76
2022/10/17 05:26:57;;;;;;;18.15;13.70;;;14.80;99.90;;;;;;4963036;28;20379;-75
2022/10/17 05:29:23;;;;;;;22.65;14.98;;;14.00;99.90;;;;;;4958883;28;20049;-75
2022/10/17 05:31:48;;;;;;;22.02;15.02;;;14.30;99.90;;;;;;4959977;28;20079;-76
2022/10/17 05:34:14;;;;;;;16.80;15.10;;;14.30;99.90;;;;;;4965280;28;20039;-75
2022/10/17 05:36:39;;;;;;;16.45;14.57;;;14.30;99.90;;;;;;4955319;28;20528;-75
2022/10/17 05:39:05;;;;;;;18.95;14.70;;;14.60;99.90;;;;;;4957337;28;20082;-76
2022/10/17 05:41:31;;;;;;;19.67;14.45;;;14.70;99.90;;;;;;4960778;28;20560;-76
2022/10/17 05:43:56;;;;;;;15.60;13.20;;;14.10;99.90;;;;;;4958971;28;20521;-76
2022/10/17 05:46:23;;;;;;;14.40;13.00;;;14.80;99.90;;;;;;4960774;28;20035;-76
2022/10/17 05:48:49;;;;;;;17.23;14.20;;;14.70;99.90;;;;;;4960365;28;20097;-76
2022/10/17 05:51:14;;;;;;;18.27;14.40;;;14.10;99.90;;;;;;4957842;28;20043;-76
2022/10/17 05:53:41;;;;;;;22.40;13.57;;;13.90;99.90;;;;;;4960597;28;20045;-75
2022/10/17 05:56:09;;;;;;;17.60;13.52;;;14.00;99.90;;;;;;4961454;28;20197;-77
2022/10/17 05:58:34;;;;;;;16.52;13.65;;;14.20;99.90;;;;;;4962776;28;20046;-76
2022/10/17 06:01:02;;;;;;;15.70;12.45;;;14.10;99.90;;;;;;4966048;28;20046;-76
2022/10/17 06:03:28;;;;;;;24.75;14.50;;;14.10;99.90;;;;;;4957535;28;20047;-76
2022/10/17 06:05:54;;;;;;;20.58;14.40;;;13.90;99.90;;;;;;4953555;28;20031;-76
2022/10/17 06:08:21;;;;;;;17.67;13.68;;;14.90;99.90;;;;;;4965594;28;20051;-76
2022/10/17 06:10:49;;;;;;;19.25;13.38;;;14.80;99.90;;;;;;4964882;28;20375;-76
2022/10/17 06:13:16;;;;;;;15.75;13.27;;;14.90;99.90;;;;;;4966774;28;20487;-76
2022/10/17 06:15:42;;;;;;;19.83;15.15;;;14.80;99.90;;;;;;4969632;28;20098;-76
2022/10/17 06:18:09;;;;;;;14.98;13.38;;;14.10;99.90;;;;;;4969488;28;20046;-77
2022/10/17 06:20:35;;;;;;;20.90;13.95;;;14.30;99.90;;;;;;4970452;28;20125;-76
2022/10/17 06:23:00;;;;;;;23.33;14.70;;;14.80;99.90;;;;;;4969949;28;20068;-76
2022/10/17 06:25:26;;;;;;;18.38;14.07;;;14.90;99.90;;;;;;4954857;28;20513;-76
2022/10/17 06:27:51;;;;;;;22.83;14.13;;;14.30;99.90;;;;;;4957711;28;20114;-76
2022/10/17 06:30:17;;;;;;;19.70;15.13;;;15.20;99.90;;;;;;4974552;28;20129;-75
2022/10/17 06:32:43;;;;;;;18.13;14.20;;;14.30;99.90;;;;;;4968180;28;20039;-76
2022/10/17 06:35:08;;;;;;;36.03;14.38;;;14.40;99.90;;;;;;4968590;28;20055;-73
2022/10/17 06:37:35;;;;;;;15.50;12.18;;;15.20;99.90;;;;;;4955909;28;20457;-77
2022/10/17 06:40:01;;;;;;;13.93;12.30;;;15.10;99.90;;;;;;4964681;28;20050;-76
2022/10/17 06:42:28;;;;;;;17.38;11.38;;;14.40;99.90;;;;;;4971657;28;20078;-76
2022/10/17 06:44:53;;;;;;;16.08;10.93;;;14.60;99.90;;;;;;4974257;28;20500;-77
2022/10/17 06:47:19;;;;;;;15.02;11.95;;;14.60;99.90;;;;;;4959303;28;20118;-77
2022/10/17 06:49:44;;;;;;;15.13;10.45;;;14.70;99.90;;;;;;4966530;28;20043;-77
2022/10/17 06:52:10;;;;;;;15.70;10.00;;;14.90;99.90;;;;;;4963106;28;20503;-77
2022/10/17 06:54:36;;;;;;;12.88;10.55;;;14.70;99.90;;;;;;4965743;28;20117;-77
2022/10/17 06:57:01;;;;;;;11.57;10.38;;;15.50;99.90;;;;;;4970934;28;20505;-77
2022/10/17 06:59:27;;;;;;;20.75;11.95;;;15.60;99.90;;;;;;4965163;28;20051;-77
2022/10/17 07:01:52;;;;;;;14.32;10.70;;;15.50;99.90;;;;;;4961579;28;20035;-77
2022/10/17 07:04:18;;;;;;;14.32;11.07;;;14.70;99.90;;;;;;4957044;28;20038;-78
2022/10/17 07:06:44;;;;;;;16.15;10.88;;;14.80;99.90;;;;;;4960693;28;20110;-77
2022/10/17 07:09:10;;;;;;;15.77;10.88;;;15.60;99.90;;;;;;4961917;28;20077;-77
2022/10/17 07:11:35;;;;;;;11.48;10.27;;;15.10;99.90;;;;;;4961818;28;20043;-76
2022/10/17 07:14:01;;;;;;;13.00;11.23;;;15.30;99.90;;;;;;4964949;28;20039;-76
2022/10/17 07:16:27;;;;;;;14.25;9.18;;;15.40;99.90;;;;;;4964064;28;20061;-76
2022/10/17 07:18:53;;;;;;;13.40;9.10;;;15.10;99.90;;;;;;4967616;28;20042;-76
2022/10/17 07:21:19;;;;;;;12.45;9.02;;;15.50;99.90;;;;;;4967810;28;20039;-76
2022/10/17 07:23:45;;;;;;;13.65;10.32;;;15.70;99.90;;;;;;4954531;28;20130;-76
2022/10/17 07:26:13;;;;;;;17.48;9.18;;;15.60;99.90;;;;;;4961463;28;20042;-77
2022/10/17 07:28:40;;;;;;;12.38;9.32;;;16.40;99.90;;;;;;4983216;28;20190;-76
2022/10/17 07:31:10;;;;;;;13.73;9.93;;;15.50;99.90;;;;;;4965397;28;20055;-75
2022/10/17 07:33:35;;;;;;;12.38;8.98;;;16.50;99.90;;;;;;4962051;28;20155;-75
2022/10/17 07:36:02;;;;;;;10.32;9.13;;;15.90;99.90;;;;;;4966614;28;20759;-76
2022/10/17 07:38:28;;;;;;;15.48;9.60;;;16.60;99.90;;;;;;4971958;28;20043;-76
2022/10/17 07:40:58;;;;;;;14.50;7.70;;;15.80;99.90;;;;;;4967195;28;20051;-74
2022/10/17 07:43:25;;;;;;;11.00;9.10;;;16.60;99.90;;;;;;4954072;28;20047;-75
2022/10/17 07:45:51;;;;;;;11.57;7.32;;;15.70;99.90;;;;;;4967148;28;20042;-76
2022/10/17 07:48:17;;;;;;;10.02;8.05;;;15.90;99.90;;;;;;4972838;28;20054;-77
2022/10/17 07:50:43;;;;;;;10.68;7.25;;;16.70;99.90;;;;;;4960340;28;20039;-77
2022/10/17 07:53:09;;;;;;;9.55;8.48;;;16.40;99.90;;;;;;4953039;28;20131;-75
2022/10/17 07:55:37;;;;;;;11.57;7.47;;;16.00;99.90;;;;;;4962316;28;20058;-77
2022/10/17 07:58:03;;;;;;;10.70;7.35;;;16.20;99.90;;;;;;4973296;28;20035;-77
2022/10/17 08:00:28;;;;;;;14.85;7.68;;;17.00;99.90;;;;;;4957911;28;20065;-76
2022/10/17 08:02:54;;;;;;;14.25;8.10;;;16.70;99.90;;;;;;4969284;28;20043;-75
2022/10/17 08:05:19;;;;;;;10.65;7.95;;;16.90;99.90;;;;;;4965795;28;20111;-75
2022/10/17 08:07:45;;;;;;;9.45;8.15;;;16.20;99.90;;;;;;4966525;28;20070;-75
2022/10/17 08:10:13;;;;;;;12.13;7.93;;;16.90;99.90;;;;;;4966900;28;20055;-75
2022/10/17 08:12:38;;;;;;;9.90;7.60;;;16.50;99.90;;;;;;4963840;28;20039;-74
2022/10/17 08:15:05;;;;;;;8.77;7.80;;;16.40;99.90;;;;;;4963012;28;20101;-75
2022/10/17 08:17:34;;;;;;;13.10;7.43;;;17.10;99.90;;;;;;4987676;28;20274;-74
2022/10/17 08:19:59;;;;;;;12.50;8.32;;;17.00;99.90;;;;;;4958888;28;20417;-75
2022/10/17 08:22:25;;;;;;;11.90;8.20;;;16.20;99.90;;;;;;4971040;28;20039;-75
2022/10/17 08:24:51;;;;;;;12.98;7.75;;;16.60;99.90;;;;;;4962278;28;20035;-75
2022/10/17 08:27:22;;;;;;;10.80;8.15;;;16.60;99.90;;;;;;4955450;28;20086;-74
2022/10/17 08:29:51;;;;;;;11.50;6.78;;;16.30;99.90;;;;;;4986156;28;20137;-75
2022/10/17 08:32:18;;;;;;;12.88;7.82;;;16.60;99.90;;;;;;4953370;28;20055;-75
2022/10/17 08:34:43;;;;;;;11.80;8.07;;;17.10;99.90;;;;;;4961963;28;20043;-75
2022/10/17 08:37:09;;;;;;;14.60;7.63;;;16.40;99.90;;;;;;4952597;28;20040;-74
2022/10/17 08:39:34;;;;;;;9.55;7.05;;;17.20;99.90;;;;;;4961523;28;20039;-74
2022/10/17 08:42:37;;;;;;;12.20;7.78;;;17.20;99.90;;;;;;4968952;28;20039;-74
2022/10/17 08:45:23;;;;;;;14.48;9.35;;;17.00;99.90;;;;;;4960396;28;20042;-73
2022/10/17 08:47:53;;;;;;;8.68;6.85;;;16.30;99.90;;;;;;4949221;28;20489;-74
2022/10/17 08:50:35;;;;;;;;;;;16.50;99.90;;;;;;4968486;28;20043;-75
2022/10/17 08:53:22;;;;;;;9.68;8.68;;;16.30;99.90;;;;;;4958204;28;20051;-74
2022/10/17 08:55:50;;;;;;;17.10;8.13;;;16.30;99.90;;;;;;4960254;28;20093;-73
2022/10/17 08:58:31;;;;;;;10.45;8.00;;;16.30;99.90;;;;;;4964521;28;20093;-75
2022/10/17 09:01:02;;;;;;;8.90;7.43;;;16.90;99.90;;;;;;4960519;28;20058;-75
2022/10/17 09:03:50;;;;;;;10.63;8.60;;;16.40;99.90;;;;;;4958643;28;20398;-72
2022/10/17 09:06:28;;;;;;;12.68;8.45;;;17.20;99.90;;;;;;4957865;28;20444;-74
2022/10/17 09:09:00;;;;;;;11.88;8.25;;;17.10;99.90;;;;;;4961273;28;20046;-72
2022/10/17 09:11:55;;;;;;;9.48;7.90;;;17.00;99.90;;;;;;4956058;28;20043;-74
2022/10/17 09:14:56;;;;;;;10.45;8.90;;;16.50;99.90;;;;;;4960360;28;20101;-73
2022/10/17 09:17:32;;;;;;;8.93;6.78;;;16.40;99.90;;;;;;4919384;28;20444;-74
2022/10/17 09:20:10;;;;;;;11.75;8.35;;;16.50;99.90;;;;;;4964745;28;20051;-75
2022/10/17 09:22:44;;;;;;;12.80;8.93;;;16.50;99.90;;;;;;4974183;28;20059;-75
2022/10/17 09:25:14;;;;;;;10.90;8.20;;;17.00;99.90;;;;;;4961049;28;20117;-73
2022/10/17 09:27:44;;;;;;;19.33;9.48;;;16.30;99.90;;;;;;4959910;28;20039;-74
2022/10/17 09:30:32;;;;;;;15.95;10.30;;;16.60;99.90;;;;;;4959634;28;21704;-75
2022/10/17 09:32:58;;;;;;;15.45;10.02;;;17.20;99.90;;;;;;4963611;28;20039;-74
2022/10/17 09:35:26;;;;;;;13.93;10.55;;;16.10;99.90;;;;;;4965848;28;20051;-75
2022/10/17 09:37:53;;;;;;;20.33;11.52;;;16.60;99.90;;;;;;4961056;28;20050;-74
2022/10/17 09:40:23;;;;;;;32.13;12.88;;;17.00;99.90;;;;;;4975434;28;20049;-74
2022/10/17 09:42:50;;;;;;;16.20;11.43;;;16.60;99.90;;;;;;4961164;28;20060;-75
2022/10/17 09:45:25;;;;;;;16.48;11.32;;;16.20;99.90;;;;;;4958559;28;20055;-74
2022/10/17 09:48:09;;;;;;;22.63;11.00;;;16.10;99.90;;;;;;4961237;28;20051;-74
2022/10/17 09:50:35;;;;;;;18.00;12.10;;;16.80;99.90;;;;;;4976890;28;20078;-74
2022/10/17 09:53:20;;;;;;;18.45;11.52;;;16.80;99.90;;;;;;4959461;28;20466;-75
2022/10/17 09:55:50;;;;;;;15.75;11.50;;;16.10;99.90;;;;;;4958784;28;20106;-74
2022/10/17 09:58:15;;;;;;;16.00;10.70;;;17.00;99.90;;;;;;4960655;28;20853;-74
2022/10/17 10:00:47;;;;;;;16.55;12.68;;;16.70;99.90;;;;;;4959775;28;20057;-74
2022/10/17 10:03:20;;;;;;;17.42;12.07;;;15.90;99.90;;;;;;4958660;28;20057;-74
2022/10/17 10:06:16;;;;;;;18.67;11.00;;;16.10;99.90;;;;;;4955098;28;20043;-73
2022/10/17 10:08:58;;;;;;;15.15;10.55;;;15.90;99.90;;;;;;4965414;28;20050;-76
2022/10/17 10:11:50;;;;;;;14.60;10.15;;;15.90;99.90;;;;;;4966313;28;20134;-74
2022/10/17 10:14:27;;;;;;;18.15;9.90;;;17.10;99.90;;;;;;4949554;28;20131;-74
2022/10/17 10:16:52;;;;;;;14.57;10.43;;;17.10;99.90;;;;;;4959838;28;20050;-74
2022/10/17 10:19:28;;;;;;;16.98;10.82;;;16.60;99.90;;;;;;4962316;28;20363;-75
2022/10/17 10:21:58;;;;;;;19.75;10.98;;;16.00;99.90;;;;;;4961346;28;20495;-74
2022/10/17 10:24:25;;;;;;;13.35;10.48;;;16.00;99.90;;;;;;4954815;28;20045;-74
2022/10/17 10:26:53;;;;;;;12.95;10.52;;;16.60;99.90;;;;;;4957476;28;20394;-74
2022/10/17 10:29:31;;;;;;;15.93;11.05;;;17.20;99.90;;;;;;4949829;28;20166;-74
2022/10/17 10:32:27;;;;;;;15.98;10.77;;;16.90;99.90;;;;;;4965370;28;20078;-74
2022/10/17 10:34:55;;;;;;;17.45;11.88;;;16.90;99.90;;;;;;4961214;28;20110;-74
2022/10/17 10:37:40;;;;;;;18.58;11.10;;;16.00;99.90;;;;;;4965902;28;20047;-74
2022/10/17 10:40:17;;;;;;;11.88;10.00;;;16.90;99.90;;;;;;4957786;28;20043;-74
2022/10/17 10:42:47;;;;;;;14.93;10.88;;;17.20;99.90;;;;;;4957096;28;20049;-71
2022/10/17 10:45:19;;;;;;;13.32;9.98;;;17.00;99.90;;;;;;4952350;28;20150;-73
2022/10/17 10:47:57;;;;;;;18.02;11.35;;;16.70;99.90;;;;;;4957136;28;20047;-74
2022/10/17 10:50:31;;;;;;;21.58;11.98;;;16.20;99.90;;;;;;4959290;28;20481;-73
2022/10/17 10:53:31;;;;;;;16.65;11.45;;;16.90;99.90;;;;;;4961277;28;20178;-74
2022/10/17 10:56:19;;;;;;;15.80;11.40;;;17.10;99.90;;;;;;4957253;28;20130;-73
2022/10/17 10:59:09;;;;;;;14.63;11.00;;;17.20;99.90;;;;;;4964201;28;20386;-73
2022/10/17 11:02:09;;;;;;;19.48;11.20;;;17.00;99.90;;;;;;4961088;28;20097;-73
2022/10/17 11:04:39;;;;;;;17.40;10.05;;;16.40;99.90;;;;;;4970560;28;20512;-73
2022/10/17 11:07:24;;;;;;;15.75;10.85;;;16.40;99.90;;;;;;4956710;28;20047;-74
2022/10/17 11:10:11;;;;;;;14.65;10.95;;;17.10;99.90;;;;;;4972481;28;20051;-73
2022/10/17 11:13:10;;;;;;;18.95;10.05;;;17.10;99.90;;;;;;4964018;28;20513;-73
2022/10/17 11:15:52;;;;;;;17.67;10.83;;;16.10;99.90;;;;;;4952241;28;20543;-73
2022/10/17 11:18:44;;;;;;;16.65;9.95;;;17.10;99.90;;;;;;4968748;28;20050;-73
2022/10/17 11:21:17;;;;;;;13.85;10.15;;;17.10;99.90;;;;;;4946729;29;20491;-73
2022/10/17 11:23:50;;;;;;;13.65;10.88;;;17.10;99.90;;;;;;4954669;28;20465;-74
2022/10/17 11:26:25;;;;;;;14.93;11.13;;;16.30;99.90;;;;;;4961842;28;20051;-74
2022/10/17 11:28:56;;;;;;;12.13;9.65;;;17.20;99.90;;;;;;4964581;28;20478;-74
2022/10/17 11:31:33;;;;;;;21.60;11.05;;;17.00;99.90;;;;;;4961379;28;20047;-74
2022/10/17 11:34:05;;;;;;;11.15;8.38;;;17.30;99.90;;;;;;4966113;28;20051;-74
2022/10/17 11:36:36;;;;;;;13.93;9.40;;;17.00;99.90;;;;;;4959418;28;20051;-74
2022/10/17 11:39:21;;;;;;;11.40;8.73;;;17.20;99.90;;;;;;4966731;28;20047;-74
2022/10/17 11:41:58;;;;;;;9.52;7.57;;;16.80;99.90;;;;;;4954584;28;20043;-74
2022/10/17 11:44:26;;;;;;;10.23;7.40;;;16.50;99.90;;;;;;4952120;29;20101;-75
2022/10/17 11:47:00;;;;;;;12.43;6.25;;;17.30;99.90;;;;;;4961007;28;20137;-74
2022/10/17 11:49:43;;;;;;;10.15;7.13;;;17.40;99.90;;;;;;4967902;28;20410;-74
2022/10/17 11:52:37;;;;;;;10.48;8.23;;;16.60;99.90;;;;;;4971832;28;20051;-75
2022/10/17 11:55:16;;;;;;;8.40;7.30;;;16.30;99.90;;;;;;4957983;28;20058;-75
2022/10/17 11:58:19;;;;;;;9.32;8.05;;;16.30;99.90;;;;;;4954085;28;20043;-75
2022/10/17 12:00:51;;;;;;;8.52;7.28;;;17.20;99.90;;;;;;4954368;28;20078;-74
2022/10/17 12:03:54;;;;;;;22.25;8.07;;;16.50;99.90;;;;;;4960462;28;20066;-74
2022/10/17 12:06:44;;;;;;;12.27;7.40;;;17.60;99.90;;;;;;4953714;28;20138;-75
2022/10/17 12:09:24;;;;;;;12.57;7.88;;;17.70;99.90;;;;;;4953461;28;20055;-74
2022/10/17 12:11:55;;;;;;;11.93;7.30;;;16.60;99.90;;;;;;4957199;28;20541;-75
2022/10/17 12:14:45;;;;;;;8.32;6.30;;;17.00;99.90;;;;;;4961982;28;20055;-74
2022/10/17 12:17:26;;;;;;;6.40;5.00;;;17.50;99.90;;;;;;4964335;28;20054;-74
2022/10/17 12:19:52;;;;;;;9.40;4.82;;;16.70;99.90;;;;;;4953736;28;20083;-74
2022/10/17 12:22:25;;;;;;;7.60;4.63;;;17.30;99.90;;;;;;4952095;28;20063;-75
2022/10/17 12:24:55;;;;;;;8.75;5.03;;;16.90;99.90;;;;;;4952836;28;20106;-75
2022/10/17 12:27:29;;;;;;;7.10;5.47;;;17.40;99.90;;;;;;4953293;28;20043;-74
2022/10/17 12:30:06;;;;;;;9.07;5.45;;;17.30;99.90;;;;;;4952795;28;20055;-74
2022/10/17 12:32:32;;;;;;;6.90;4.45;;;17.40;99.90;;;;;;4957942;28;20081;-74
2022/10/17 12:34:58;;;;;;;5.97;3.83;;;17.20;99.90;;;;;;4959258;28;20487;-75
2022/10/17 12:37:42;;;;;;;7.38;4.28;;;16.40;99.90;;;;;;4951667;28;20449;-74
2022/10/17 12:40:33;;;;;;;7.70;5.25;;;17.10;99.90;;;;;;4953051;28;20058;-75
2022/10/17 12:43:00;;;;;;;4.32;3.58;;;16.30;99.90;;;;;;4940120;28;20046;-75
2022/10/17 12:45:53;;;;;;;4.25;3.53;;;16.20;99.90;;;;;;4969575;28;20049;-74
2022/10/17 12:48:37;;;;;;;6.85;3.22;;;16.10;99.90;;;;;;4956493;28;20135;-75
2022/10/17 12:51:18;;;;;;;6.20;3.40;;;16.80;99.90;;;;;;4960424;28;20043;-75
2022/10/17 12:53:56;;;;;;;5.53;3.60;;;16.70;99.90;;;;;;4960820;28;20046;-75
2022/10/17 12:56:38;;;;;;;6.53;2.72;;;16.20;99.90;;;;;;4955392;28;20039;-75
2022/10/17 12:59:16;;;;;;;8.52;3.17;;;16.70;99.90;;;;;;4962274;28;20521;-75
2022/10/17 13:01:46;;;;;;;7.85;2.85;;;16.30;99.90;;;;;;4953567;28;20097;-76